sensor_id;sensor_type;location;lat;lon;timestamp;temperature;humidity
43015;DHT22;28637;50.554;7.032;2022-08-23T18:00:42;24.90;89.70
43015;DHT22;28637;50.554;7.032;2022-08-23T18:05:43;24.90;90.30
43015;DHT22;28637;50.554;7.032;2022-08-23T18:10:45;24.90;90.10
43015;DHT22;28637;50.554;7.032;2022-08-23T18:15:46;24.90;90.00
43015;DHT22;28637;50.554;7.032;2022-08-23T18:20:47;24.90;90.00
43015;DHT22;28637;50.554;7.032;2022-08-23T18:25:47;24.80;90.10
43015;DHT22;28637;50.554;7.032;2022-08-23T18:30:52;24.80;90.10
43015;DHT22;28637;50.554;7.032;2022-08-23T18:35:57;24.80;89.20
43015;DHT22;28637;50.554;7.032;2022-08-23T18:40:57;24.70;88.30
43015;DHT22;28637;50.554;7.032;2022-08-23T18:45:59;24.70;86.90
43015;DHT22;28637;50.554;7.032;2022-08-23T18:51:00;24.70;85.50
43015;DHT22;28637;50.554;7.032;2022-08-23T18:56:01;24.80;84.30
43015;DHT22;28637;50.554;7.032;2022-08-23T19:01:02;24.80;83.10
43015;DHT22;28637;50.554;7.032;2022-08-23T19:06:03;24.90;82.60
43015;DHT22;28637;50.554;7.032;2022-08-23T19:11:03;24.90;81.60
43015;DHT22;28637;50.554;7.032;2022-08-23T19:16:05;25.00;82.80
43015;DHT22;28637;50.554;7.032;2022-08-23T19:21:06;24.90;83.50
43015;DHT22;28637;50.554;7.032;2022-08-23T19:26:11;25.00;84.20
43015;DHT22;28637;50.554;7.032;2022-08-23T19:31:12;24.90;84.70
43015;DHT22;28637;50.554;7.032;2022-08-23T19:36:13;24.80;85.10
43015;DHT22;28637;50.554;7.032;2022-08-23T19:41:14;24.80;85.50
43015;DHT22;28637;50.554;7.032;2022-08-23T19:46:15;24.80;85.90
43015;DHT22;28637;50.554;7.032;2022-08-23T19:51:16;24.80;86.10
43015;DHT22;28637;50.554;7.032;2022-08-23T19:56:17;24.70;86.30
43015;DHT22;28637;50.554;7.032;2022-08-23T20:01:17;24.70;86.60
43015;DHT22;28637;50.554;7.032;2022-08-23T20:06:18;24.70;86.80
43015;DHT22;28637;50.554;7.032;2022-08-23T20:11:19;24.70;86.90
43015;DHT22;28637;50.554;7.032;2022-08-23T20:16:20;24.80;87.20
43015;DHT22;28637;50.554;7.032;2022-08-23T20:21:20;24.90;87.20
43015;DHT22;28637;50.554;7.032;2022-08-23T20:26:21;25.00;87.20
43015;DHT22;28637;50.554;7.032;2022-08-23T20:31:23;25.00;87.30
43015;DHT22;28637;50.554;7.032;2022-08-23T20:36:24;25.00;87.40
43015;DHT22;28637;50.554;7.032;2022-08-23T20:41:30;25.10;87.40
43015;DHT22;28637;50.554;7.032;2022-08-23T20:46:31;25.10;87.60
43015;DHT22;28637;50.554;7.032;2022-08-23T20:51:32;25.10;87.60
43015;DHT22;28637;50.554;7.032;2022-08-23T20:56:34;25.20;87.60
43015;DHT22;28637;50.554;7.032;2022-08-23T21:01:35;25.20;87.50
43015;DHT22;28637;50.554;7.032;2022-08-23T21:06:37;25.20;87.40
43015;DHT22;28637;50.554;7.032;2022-08-23T21:11:38;25.20;87.50
43015;DHT22;28637;50.554;7.032;2022-08-23T21:16:38;25.20;87.70
43015;DHT22;28637;50.554;7.032;2022-08-23T21:21:40;25.20;88.10
43015;DHT22;28637;50.554;7.032;2022-08-23T21:26:41;25.10;88.20
43015;DHT22;28637;50.554;7.032;2022-08-23T21:31:42;25.20;88.60
43015;DHT22;28637;50.554;7.032;2022-08-23T21:36:43;25.30;88.60
43015;DHT22;28637;50.554;7.032;2022-08-23T21:41:44;25.30;88.60
43015;DHT22;28637;50.554;7.032;2022-08-23T21:46:46;25.30;88.60
43015;DHT22;28637;50.554;7.032;2022-08-23T21:51:47;25.30;88.60
43015;DHT22;28637;50.554;7.032;2022-08-23T21:56:48;25.30;88.50
43015;DHT22;28637;50.554;7.032;2022-08-23T22:01:49;25.30;88.60
43015;DHT22;28637;50.554;7.032;2022-08-23T22:06:50;25.30;88.80
43015;DHT22;28637;50.554;7.032;2022-08-23T22:11:50;25.30;88.80
43015;DHT22;28637;50.554;7.032;2022-08-23T22:16:53;25.30;88.90
43015;DHT22;28637;50.554;7.032;2022-08-23T22:21:53;25.30;89.60
43015;DHT22;28637;50.554;7.032;2022-08-23T22:26:54;25.30;89.00
43015;DHT22;28637;50.554;7.032;2022-08-23T22:31:55;25.30;89.00
43015;DHT22;28637;50.554;7.032;2022-08-23T22:36:55;25.30;89.00
43015;DHT22;28637;50.554;7.032;2022-08-23T22:41:56;25.30;89.10
43015;DHT22;28637;50.554;7.032;2022-08-23T22:46:57;25.40;89.20
43015;DHT22;28637;50.554;7.032;2022-08-23T22:51:58;25.40;89.20
43015;DHT22;28637;50.554;7.032;2022-08-23T22:56:59;25.40;89.20
43015;DHT22;28637;50.554;7.032;2022-08-23T23:02:00;25.40;89.10
43015;DHT22;28637;50.554;7.032;2022-08-23T23:07:01;25.40;89.20
43015;DHT22;28637;50.554;7.032;2022-08-23T23:12:02;25.40;89.10
43015;DHT22;28637;50.554;7.032;2022-08-23T23:17:03;25.40;89.10
43015;DHT22;28637;50.554;7.032;2022-08-23T23:22:05;25.40;89.00
43015;DHT22;28637;50.554;7.032;2022-08-23T23:27:06;25.50;89.00
43015;DHT22;28637;50.554;7.032;2022-08-23T23:32:07;25.50;89.00
43015;DHT22;28637;50.554;7.032;2022-08-23T23:37:08;25.50;89.10
43015;DHT22;28637;50.554;7.032;2022-08-23T23:42:08;25.50;89.10
